createdAt,value
2022-12-25T00:03:39.248Z,3.75
2022-12-25T00:08:44.704Z,3.53
2022-12-25T00:18:27.550Z,3.58
2022-12-25T00:25:16.611Z,4.57
2022-12-25T00:30:30.426Z,4.00
2022-12-25T00:35:33.931Z,3.53
2022-12-25T00:40:45.927Z,4.43
2022-12-25T00:46:04.560Z,3.63
2022-12-25T00:51:11.256Z,3.55
2022-12-25T00:56:14.207Z,3.15
2022-12-25T01:01:24.726Z,3.03
2022-12-25T01:06:34.973Z,3.00
2022-12-25T01:11:40.967Z,3.38
2022-12-25T01:16:52.441Z,3.10
2022-12-25T01:21:54.408Z,4.00
2022-12-25T01:26:56.368Z,3.97
2022-12-25T01:31:58.285Z,4.05
2022-12-25T01:37:00.378Z,4.70
2022-12-25T01:42:02.356Z,4.95
2022-12-25T01:47:05.782Z,4.10
2022-12-25T01:52:24.747Z,13.87
2022-12-25T01:57:30.887Z,5.82
2022-12-25T02:05:28.353Z,3.50
2022-12-25T02:16:23.783Z,3.53
2022-12-25T02:21:49.566Z,3.72
2022-12-25T02:27:21.135Z,4.00
2022-12-25T02:32:52.983Z,3.55
2022-12-25T02:38:16.095Z,3.38
2022-12-25T02:43:48.856Z,3.23
2022-12-25T02:49:44.639Z,3.55
2022-12-25T02:55:35.974Z,3.70
2022-12-25T03:01:09.299Z,3.58
2022-12-25T03:06:34.993Z,3.25
2022-12-25T03:11:39.237Z,3.50
2022-12-25T03:16:51.794Z,3.95
2022-12-25T03:22:20.044Z,3.40
2022-12-25T03:27:28.093Z,3.50
2022-12-25T03:33:09.539Z,3.28
2022-12-25T03:38:54.306Z,10.63
2022-12-25T03:44:53.022Z,5.80
2022-12-25T03:50:44.034Z,3.83
2022-12-25T03:56:08.999Z,3.35
2022-12-25T04:01:35.497Z,3.15
2022-12-25T04:07:01.713Z,3.80
2022-12-25T04:12:29.947Z,3.05
2022-12-25T04:18:57.563Z,4.10
2022-12-25T04:25:33.560Z,3.70
2022-12-25T04:30:57.895Z,3.75
2022-12-25T04:36:11.323Z,3.78
2022-12-25T04:41:17.165Z,3.75
2022-12-25T04:46:22.652Z,3.67
2022-12-25T04:51:31.479Z,3.70
2022-12-25T04:56:40.059Z,3.50
2022-12-25T05:07:39.705Z,3.30
2022-12-25T05:12:43.141Z,3.75
2022-12-25T05:17:46.627Z,3.70
2022-12-25T05:22:52.144Z,3.47
2022-12-25T05:27:59.235Z,3.08
2022-12-25T05:33:10.764Z,2.92
2022-12-25T05:38:12.660Z,3.30
2022-12-25T06:18:26.531Z,3.70
2022-12-25T06:23:28.430Z,3.50
2022-12-25T06:28:30.358Z,4.00
2022-12-25T06:33:34.592Z,3.65
2022-12-25T06:38:36.473Z,3.17
2022-12-25T06:43:38.510Z,3.17
2022-12-25T06:48:41.761Z,3.17
2022-12-25T06:53:43.857Z,2.83
2022-12-25T06:59:00.717Z,3.45
2022-12-25T07:04:18.125Z,3.42
2022-12-25T07:09:30.829Z,2.70
2022-12-25T07:14:32.814Z,2.90
2022-12-25T07:19:38.237Z,2.95
2022-12-25T07:24:43.242Z,3.08
2022-12-25T07:29:46.181Z,3.88
2022-12-25T07:34:48.136Z,3.42
2022-12-25T07:39:51.318Z,3.28
2022-12-25T07:44:53.480Z,3.15
2022-12-25T07:50:03.860Z,3.67
2022-12-25T07:55:06.705Z,3.33
2022-12-25T08:00:10.340Z,3.97
2022-12-25T08:05:16.482Z,4.05
2022-12-25T08:15:59.395Z,3.13
2022-12-25T08:21:12.666Z,3.10
2022-12-25T08:26:24.841Z,2.90
2022-12-25T08:32:01.995Z,3.30
2022-12-25T08:37:06.201Z,3.40
2022-12-25T08:42:09.228Z,3.20
2022-12-25T08:47:14.543Z,3.58
2022-12-25T08:52:25.116Z,3.70
2022-12-25T08:57:27.128Z,3.15
2022-12-25T09:02:30.244Z,4.32
2022-12-25T09:07:32.609Z,5.30
2022-12-25T09:12:42.416Z,4.20
2022-12-25T09:21:33.298Z,4.20
2022-12-25T09:30:07.880Z,4.00
2022-12-25T09:35:17.118Z,4.00
2022-12-25T09:40:23.650Z,3.88
2022-12-25T09:45:46.295Z,3.60
2022-12-25T09:51:08.729Z,4.88
2022-12-25T09:56:21.097Z,5.82
2022-12-25T10:02:02.183Z,5.20
2022-12-25T10:07:44.088Z,4.60
2022-12-25T10:13:34.580Z,4.30
2022-12-25T10:19:30.834Z,4.30
2022-12-25T10:25:02.680Z,4.03
2022-12-25T10:30:28.187Z,3.88
2022-12-25T10:35:34.086Z,3.88
2022-12-25T10:41:42.290Z,3.20
2022-12-25T10:46:51.254Z,3.10
2022-12-25T10:51:55.142Z,3.10
2022-12-25T10:57:23.922Z,2.97
2022-12-25T11:02:39.872Z,3.10
2022-12-25T11:07:53.848Z,3.67
2022-12-25T11:12:56.194Z,3.95
2022-12-25T11:18:06.018Z,3.90
2022-12-25T11:23:18.012Z,4.40
2022-12-25T11:28:23.695Z,5.15
2022-12-25T11:33:36.361Z,3.85
2022-12-25T11:38:45.210Z,3.65
2022-12-25T11:43:59.879Z,4.53
2022-12-25T11:49:08.276Z,4.07
2022-12-25T11:54:27.972Z,3.53
2022-12-25T11:59:58.151Z,3.70
2022-12-25T12:05:09.281Z,3.22
2022-12-25T12:18:48.143Z,3.53
2022-12-25T12:24:22.251Z,4.05
2022-12-25T12:29:31.588Z,3.78
2022-12-25T12:34:51.188Z,4.15
2022-12-25T12:39:57.939Z,3.72
2022-12-25T12:45:11.024Z,3.65
2022-12-25T12:50:43.986Z,3.40
2022-12-25T12:55:50.664Z,3.70
2022-12-25T13:01:11.252Z,3.72
2022-12-25T13:06:41.653Z,3.80
2022-12-25T13:11:49.341Z,3.83
2022-12-25T13:18:48.956Z,3.75
2022-12-25T13:24:08.322Z,3.45
2022-12-25T13:29:33.664Z,4.20
2022-12-25T13:34:41.725Z,4.45
2022-12-25T13:39:57.653Z,3.65
2022-12-25T13:45:06.468Z,3.92
2022-12-25T13:50:29.441Z,3.88
2022-12-25T13:55:33.579Z,3.92
2022-12-25T14:00:57.137Z,3.58
2022-12-25T14:06:16.253Z,4.00
2022-12-25T14:11:23.523Z,4.18
2022-12-25T14:16:32.322Z,3.85
2022-12-25T14:21:50.976Z,3.67
2022-12-25T14:27:24.871Z,4.38
2022-12-25T14:32:33.772Z,4.20
2022-12-25T14:38:09.145Z,3.92
2022-12-25T14:43:26.882Z,4.07
2022-12-25T14:48:32.734Z,4.53
2022-12-25T14:53:53.345Z,4.80
2022-12-25T14:59:01.541Z,4.40
2022-12-25T15:04:23.997Z,4.50
2022-12-25T15:09:30.262Z,3.95
2022-12-25T15:14:39.712Z,4.45
2022-12-25T15:19:46.264Z,4.75
2022-12-25T15:25:00.376Z,4.43
2022-12-25T15:40:52.259Z,5.28
2022-12-25T15:46:08.190Z,5.13
2022-12-25T15:51:15.099Z,5.40
2022-12-25T15:56:20.833Z,4.15
2022-12-25T16:01:25.753Z,4.97
2022-12-25T16:06:32.701Z,5.18
2022-12-25T16:11:34.785Z,5.95
2022-12-25T16:16:41.815Z,5.50
2022-12-25T16:21:51.993Z,5.25
2022-12-25T16:26:57.200Z,5.60
2022-12-25T16:32:02.768Z,4.50
2022-12-25T16:37:08.273Z,5.82
2022-12-25T16:42:19.614Z,5.28
2022-12-25T16:47:23.207Z,6.57
2022-12-25T16:52:29.229Z,5.72
2022-12-25T16:57:35.284Z,5.85
2022-12-25T17:02:41.415Z,6.07
2022-12-25T17:07:47.088Z,6.03
2022-12-25T17:12:50.231Z,6.25
2022-12-25T17:17:52.284Z,6.15
2022-12-25T17:28:37.239Z,6.30
2022-12-25T17:33:49.678Z,6.60
2022-12-25T17:38:56.280Z,6.28
2022-12-25T17:43:59.175Z,7.22
2022-12-25T17:49:01.429Z,6.38
2022-12-25T17:54:03.459Z,6.55
2022-12-25T17:59:10.604Z,7.25
2022-12-25T18:04:12.870Z,7.35
2022-12-25T18:09:15.229Z,6.90
2022-12-25T18:18:53.216Z,6.57
2022-12-25T18:24:00.588Z,6.50
2022-12-25T18:29:08.226Z,5.72
2022-12-25T18:34:17.897Z,6.78
2022-12-25T18:39:26.668Z,6.53
2022-12-25T18:44:38.042Z,5.50
2022-12-25T18:49:42.597Z,5.50
2022-12-25T18:54:48.291Z,5.90
2022-12-25T18:59:51.837Z,5.63
2022-12-25T19:04:58.009Z,7.75
2022-12-25T19:15:46.038Z,7.80
2022-12-25T19:20:56.089Z,5.70
2022-12-25T19:26:03.823Z,7.35
2022-12-25T19:31:09.825Z,7.55
2022-12-25T19:36:21.371Z,7.38
2022-12-25T19:41:27.301Z,7.60
2022-12-25T19:46:39.697Z,13.02
2022-12-25T19:51:54.439Z,12.98
2022-12-25T19:57:01.113Z,9.07
2022-12-25T20:02:11.156Z,8.25
2022-12-25T20:07:26.478Z,8.05
2022-12-25T20:12:35.113Z,7.82
2022-12-25T20:17:43.802Z,7.53
2022-12-25T20:22:51.748Z,6.78
2022-12-25T20:27:59.692Z,6.85
2022-12-25T20:33:08.878Z,7.18
2022-12-25T20:38:15.399Z,6.22
2022-12-25T20:43:22.023Z,5.75
2022-12-25T20:48:26.850Z,4.85
2022-12-25T20:53:29.784Z,9.43
2022-12-25T20:58:34.537Z,6.35
2022-12-25T21:03:38.115Z,5.25
2022-12-25T21:08:45.327Z,5.95
2022-12-25T21:13:48.501Z,5.85
2022-12-25T21:18:52.451Z,5.90
2022-12-25T21:23:57.681Z,6.22
2022-12-25T21:29:02.199Z,6.47
2022-12-25T21:34:04.077Z,5.47
2022-12-25T21:39:08.416Z,6.43
2022-12-25T21:44:11.106Z,6.90
2022-12-25T21:49:33.090Z,6.43
2022-12-25T21:54:35.540Z,4.75
2022-12-25T21:59:43.431Z,4.47
2022-12-25T22:04:45.350Z,4.78
2022-12-25T22:09:48.995Z,5.47
2022-12-25T22:14:54.733Z,4.75
2022-12-25T22:20:00.043Z,4.60
2022-12-25T22:35:12.434Z,4.43
2022-12-25T22:40:17.007Z,4.70
2022-12-25T22:45:19.040Z,3.95
2022-12-25T22:50:21.137Z,4.47
2022-12-25T23:00:24.951Z,3.60
2022-12-25T23:05:26.868Z,4.30
2022-12-25T23:16:15.400Z,3.78
2022-12-25T23:21:40.247Z,5.47
2022-12-25T23:26:44.457Z,4.13
2022-12-25T23:31:53.680Z,3.97
2022-12-25T23:36:55.703Z,4.38
2022-12-25T23:41:57.978Z,4.07
2022-12-25T23:52:02.019Z,3.70
2022-12-25T23:57:03.975Z,3.45
